sensor_id;sensor_type;location;lat;lon;timestamp;pressure;altitude;pressure_sealevel;temperature;humidity
74794;BME280;63320;50.768;6.724;2023-07-20T00:00:45;100058.50;;;16.86;79.95
74794;BME280;63320;50.768;6.724;2023-07-20T00:03:13;100046.94;;;16.98;80.45
74794;BME280;63320;50.768;6.724;2023-07-20T00:05:38;100051.50;;;16.74;81.35
74794;BME280;63320;50.768;6.724;2023-07-20T00:08:04;100054.28;;;16.48;82.99
74794;BME280;63320;50.768;6.724;2023-07-20T00:10:29;100044.53;;;16.60;82.69
74794;BME280;63320;50.768;6.724;2023-07-20T00:12:55;100039.22;;;16.49;82.62
74794;BME280;63320;50.768;6.724;2023-07-20T00:15:20;100035.94;;;16.45;83.36
74794;BME280;63320;50.768;6.724;2023-07-20T00:17:45;100048.41;;;17.14;80.51
74794;BME280;63320;50.768;6.724;2023-07-20T00:20:12;100040.44;;;17.02;81.69
74794;BME280;63320;50.768;6.724;2023-07-20T00:22:37;100038.84;;;17.00;80.76
74794;BME280;63320;50.768;6.724;2023-07-20T00:25:03;100045.22;;;16.86;80.99
74794;BME280;63320;50.768;6.724;2023-07-20T00:27:29;100042.13;;;16.92;81.60
74794;BME280;63320;50.768;6.724;2023-07-20T00:29:54;100038.94;;;16.76;81.80
74794;BME280;63320;50.768;6.724;2023-07-20T00:32:19;100040.81;;;16.63;82.71
74794;BME280;63320;50.768;6.724;2023-07-20T00:34:45;100044.16;;;16.53;83.07
74794;BME280;63320;50.768;6.724;2023-07-20T00:37:11;100042.00;;;16.58;83.66
74794;BME280;63320;50.768;6.724;2023-07-20T00:39:37;100038.50;;;16.82;82.58
74794;BME280;63320;50.768;6.724;2023-07-20T00:42:02;100033.41;;;17.01;81.68
74794;BME280;63320;50.768;6.724;2023-07-20T00:44:28;100038.13;;;16.51;83.63
74794;BME280;63320;50.768;6.724;2023-07-20T00:46:53;100028.66;;;16.71;83.12
74794;BME280;63320;50.768;6.724;2023-07-20T00:49:19;100044.88;;;16.55;83.37
74794;BME280;63320;50.768;6.724;2023-07-20T00:51:44;100037.25;;;16.40;84.14
74794;BME280;63320;50.768;6.724;2023-07-20T00:54:11;100042.00;;;16.58;83.99
74794;BME280;63320;50.768;6.724;2023-07-20T00:56:36;100043.19;;;16.54;84.16
74794;BME280;63320;50.768;6.724;2023-07-20T00:59:02;100043.88;;;16.45;84.59
74794;BME280;63320;50.768;6.724;2023-07-20T01:01:27;100041.97;;;16.47;84.68
74794;BME280;63320;50.768;6.724;2023-07-20T01:03:53;100041.00;;;16.48;84.69
74794;BME280;63320;50.768;6.724;2023-07-20T01:06:26;100037.81;;;16.67;83.39
74794;BME280;63320;50.768;6.724;2023-07-20T01:09:02;100031.09;;;16.86;83.39
74794;BME280;63320;50.768;6.724;2023-07-20T01:11:37;100032.00;;;16.62;83.88
74794;BME280;63320;50.768;6.724;2023-07-20T01:14:03;100030.25;;;16.85;83.57
74794;BME280;63320;50.768;6.724;2023-07-20T01:16:29;100028.66;;;16.71;83.48
74794;BME280;63320;50.768;6.724;2023-07-20T01:18:54;100024.22;;;16.37;85.04
74794;BME280;63320;50.768;6.724;2023-07-20T01:21:24;100032.94;;;16.61;83.89
74794;BME280;63320;50.768;6.724;2023-07-20T01:24:18;100036.28;;;16.41;84.27
74794;BME280;63320;50.768;6.724;2023-07-20T01:27:00;100038.47;;;16.12;86.14
74794;BME280;63320;50.768;6.724;2023-07-20T01:29:43;100030.09;;;16.05;85.61
74794;BME280;63320;50.768;6.724;2023-07-20T01:32:18;100030.28;;;16.15;85.16
74794;BME280;63320;50.768;6.724;2023-07-20T01:34:48;100035.09;;;16.21;84.27
74794;BME280;63320;50.768;6.724;2023-07-20T01:37:17;100036.47;;;16.26;83.88
74794;BME280;63320;50.768;6.724;2023-07-20T01:39:43;100030.09;;;16.29;83.67
74794;BME280;63320;50.768;6.724;2023-07-20T01:42:08;100029.81;;;16.21;83.60
74794;BME280;63320;50.768;6.724;2023-07-20T01:44:34;100024.59;;;16.43;82.70
74794;BME280;63320;50.768;6.724;2023-07-20T01:46:59;100029.13;;;16.30;83.08
74794;BME280;63320;50.768;6.724;2023-07-20T01:49:26;100019.13;;;16.34;82.03
74794;BME280;63320;50.768;6.724;2023-07-20T01:51:51;100025.72;;;16.17;82.80
74794;BME280;63320;50.768;6.724;2023-07-20T01:54:16;100031.38;;;16.47;81.36
74794;BME280;63320;50.768;6.724;2023-07-20T01:56:42;100036.28;;;16.41;81.68
74794;BME280;63320;50.768;6.724;2023-07-20T01:59:07;100029.16;;;16.41;82.12
74794;BME280;63320;50.768;6.724;2023-07-20T02:01:32;100024.94;;;16.39;81.77
74794;BME280;63320;50.768;6.724;2023-07-20T02:03:58;100015.19;;;16.50;81.47
74794;BME280;63320;50.768;6.724;2023-07-20T02:06:24;100020.59;;;16.38;80.91
74794;BME280;63320;50.768;6.724;2023-07-20T02:08:50;100018.59;;;16.52;79.99
74794;BME280;63320;50.768;6.724;2023-07-20T02:11:15;100024.63;;;16.66;79.73
74794;BME280;63320;50.768;6.724;2023-07-20T02:13:40;100010.63;;;16.17;80.99
74794;BME280;63320;50.768;6.724;2023-07-20T02:16:06;100014.84;;;16.55;79.46
74794;BME280;63320;50.768;6.724;2023-07-20T02:18:31;100008.88;;;16.05;81.21
74794;BME280;63320;50.768;6.724;2023-07-20T02:20:56;100011.47;;;16.18;81.63
74794;BME280;63320;50.768;6.724;2023-07-20T02:23:23;100017.38;;;16.21;80.53
74794;BME280;63320;50.768;6.724;2023-07-20T02:25:48;100014.78;;;16.33;80.10
74794;BME280;63320;50.768;6.724;2023-07-20T02:28:14;100009.56;;;16.31;79.29
74794;BME280;63320;50.768;6.724;2023-07-20T02:30:40;100009.50;;;16.09;80.13
74794;BME280;63320;50.768;6.724;2023-07-20T02:33:05;100008.91;;;16.16;79.62
74794;BME280;63320;50.768;6.724;2023-07-20T02:35:31;100005.56;;;15.90;81.45
74794;BME280;63320;50.768;6.724;2023-07-20T02:37:56;100005.38;;;15.80;81.86
74794;BME280;63320;50.768;6.724;2023-07-20T02:40:23;100012.13;;;16.33;79.36
74794;BME280;63320;50.768;6.724;2023-07-20T02:42:48;100012.16;;;15.85;80.99
74794;BME280;63320;50.768;6.724;2023-07-20T02:45:13;100020.06;;;15.73;81.70
74794;BME280;63320;50.768;6.724;2023-07-20T02:47:39;100020.41;;;16.17;79.82
74794;BME280;63320;50.768;6.724;2023-07-20T02:50:07;100021.75;;;15.74;80.88
74794;BME280;63320;50.768;6.724;2023-07-20T02:52:33;100017.00;;;15.91;81.20
74794;BME280;63320;50.768;6.724;2023-07-20T02:54:58;100015.22;;;15.67;81.25
74794;BME280;63320;50.768;6.724;2023-07-20T02:57:25;100017.72;;;15.82;80.82
74794;BME280;63320;50.768;6.724;2023-07-20T02:59:50;100023.09;;;16.04;80.18
74794;BME280;63320;50.768;6.724;2023-07-20T03:02:15;100012.78;;;15.88;79.50
74794;BME280;63320;50.768;6.724;2023-07-20T03:04:41;100015.81;;;15.95;80.22
74794;BME280;63320;50.768;6.724;2023-07-20T03:07:06;100022.91;;;16.07;78.64
74794;BME280;63320;50.768;6.724;2023-07-20T03:09:31;100021.69;;;15.63;80.41
74794;BME280;63320;50.768;6.724;2023-07-20T03:11:57;100024.13;;;15.90;80.08
74794;BME280;63320;50.768;6.724;2023-07-20T03:14:23;100029.28;;;15.55;80.83
74794;BME280;63320;50.768;6.724;2023-07-20T03:16:49;100032.47;;;15.73;80.47
74794;BME280;63320;50.768;6.724;2023-07-20T03:19:14;100028.63;;;16.25;78.00
74794;BME280;63320;50.768;6.724;2023-07-20T03:21:40;100033.31;;;16.21;77.47
74794;BME280;63320;50.768;6.724;2023-07-20T03:24:05;100041.56;;;15.82;79.50
74794;BME280;63320;50.768;6.724;2023-07-20T03:26:31;100040.53;;;15.71;79.76
74794;BME280;63320;50.768;6.724;2023-07-20T03:28:56;100049.97;;;15.63;80.63
74794;BME280;63320;50.768;6.724;2023-07-20T03:31:23;100039.47;;;15.98;79.00
74794;BME280;63320;50.768;6.724;2023-07-20T03:33:48;100045.06;;;15.82;79.83
74794;BME280;63320;50.768;6.724;2023-07-20T03:36:13;100036.59;;;15.77;80.19
74794;BME280;63320;50.768;6.724;2023-07-20T03:38:39;100041.00;;;16.48;77.39
74794;BME280;63320;50.768;6.724;2023-07-20T03:41:04;100042.84;;;16.59;76.84
74794;BME280;63320;50.768;6.724;2023-07-20T03:43:29;100044.81;;;15.85;79.33
74794;BME280;63320;50.768;6.724;2023-07-20T03:45:55;100050.84;;;15.63;80.74
74794;BME280;63320;50.768;6.724;2023-07-20T03:48:23;100045.81;;;16.08;79.75
74794;BME280;63320;50.768;6.724;2023-07-20T03:50:50;100035.81;;;16.12;79.41
74794;BME280;63320;50.768;6.724;2023-07-20T03:53:16;100038.63;;;15.97;79.20
74794;BME280;63320;50.768;6.724;2023-07-20T03:55:44;100040.53;;;15.95;80.10
74794;BME280;63320;50.768;6.724;2023-07-20T03:58:10;100038.22;;;16.15;79.53
74794;BME280;63320;50.768;6.724;2023-07-20T04:00:35;100039.06;;;16.15;78.89
74794;BME280;63320;50.768;6.724;2023-07-20T04:03:01;100032.75;;;16.05;79.70
74794;BME280;63320;50.768;6.724;2023-07-20T04:05:27;100042.16;;;15.85;80.45
74794;BME280;63320;50.768;6.724;2023-07-20T04:07:53;100032.09;;;16.61;77.51
74794;BME280;63320;50.768;6.724;2023-07-20T04:10:18;100046.03;;;16.40;77.98
74794;BME280;63320;50.768;6.724;2023-07-20T04:12:44;100040.63;;;16.07;79.28
74794;BME280;63320;50.768;6.724;2023-07-20T04:15:10;100043.84;;;15.86;80.30
74794;BME280;63320;50.768;6.724;2023-07-20T04:17:35;100045.00;;;15.95;79.80
74794;BME280;63320;50.768;6.724;2023-07-20T04:20:00;100053.97;;;16.29;78.69
74794;BME280;63320;50.768;6.724;2023-07-20T04:22:27;100057.81;;;16.25;78.79
74794;BME280;63320;50.768;6.724;2023-07-20T04:24:52;100054.75;;;15.94;79.63
74794;BME280;63320;50.768;6.724;2023-07-20T04:27:18;100059.91;;;16.33;78.24
74794;BME280;63320;50.768;6.724;2023-07-20T04:29:43;100062.22;;;15.89;80.20
74794;BME280;63320;50.768;6.724;2023-07-20T04:32:08;100071.69;;;16.04;79.76
74794;BME280;63320;50.768;6.724;2023-07-20T04:34:34;100069.66;;;15.84;80.94
74794;BME280;63320;50.768;6.724;2023-07-20T04:36:59;100071.56;;;15.82;81.30
74794;BME280;63320;50.768;6.724;2023-07-20T04:39:26;100076.38;;;15.77;81.70
74794;BME280;63320;50.768;6.724;2023-07-20T04:41:51;100069.66;;;15.84;81.74
74794;BME280;63320;50.768;6.724;2023-07-20T04:44:16;100071.19;;;15.99;80.67
74794;BME280;63320;50.768;6.724;2023-07-20T04:46:42;100075.34;;;15.91;81.34
74794;BME280;63320;50.768;6.724;2023-07-20T04:49:07;100077.06;;;16.16;80.65
74794;BME280;63320;50.768;6.724;2023-07-20T04:51:32;100087.09;;;15.99;80.77
74794;BME280;63320;50.768;6.724;2023-07-20T04:53:58;100088.78;;;16.00;81.04
74794;BME280;63320;50.768;6.724;2023-07-20T04:56:24;100086.28;;;15.86;81.45
74794;BME280;63320;50.768;6.724;2023-07-20T04:58:50;100079.81;;;15.90;81.23
74794;BME280;63320;50.768;6.724;2023-07-20T05:01:15;100074.31;;;16.17;79.92
74794;BME280;63320;50.768;6.724;2023-07-20T05:03:40;100078.59;;;16.07;80.34
74794;BME280;63320;50.768;6.724;2023-07-20T05:06:06;100081.09;;;15.85;81.87
74794;BME280;63320;50.768;6.724;2023-07-20T05:08:31;100077.28;;;15.89;82.31
74794;BME280;63320;50.768;6.724;2023-07-20T05:10:56;100077.91;;;15.92;81.91
74794;BME280;63320;50.768;6.724;2023-07-20T05:13:23;100075.91;;;15.83;82.23
74794;BME280;63320;50.768;6.724;2023-07-20T05:15:51;100058.56;;;16.03;80.87
74794;BME280;63320;50.768;6.724;2023-07-20T05:18:16;100062.59;;;16.20;80.79
74794;BME280;63320;50.768;6.724;2023-07-20T05:20:41;100072.94;;;16.12;80.87
74794;BME280;63320;50.768;6.724;2023-07-20T05:23:07;100061.22;;;16.27;80.24
74794;BME280;63320;50.768;6.724;2023-07-20T05:25:32;100063.53;;;16.31;79.74
74794;BME280;63320;50.768;6.724;2023-07-20T05:27:57;100064.88;;;16.13;80.39
74794;BME280;63320;50.768;6.724;2023-07-20T05:30:25;100068.38;;;16.14;80.49
74794;BME280;63320;50.768;6.724;2023-07-20T05:32:50;100067.28;;;15.92;82.18
74794;BME280;63320;50.768;6.724;2023-07-20T05:35:16;100074.75;;;15.87;82.29
74794;BME280;63320;50.768;6.724;2023-07-20T05:37:41;100070.91;;;16.15;80.58
74794;BME280;63320;50.768;6.724;2023-07-20T05:40:08;100079.25;;;15.98;81.58
74794;BME280;63320;50.768;6.724;2023-07-20T05:42:33;100076.03;;;16.05;82.02
74794;BME280;63320;50.768;6.724;2023-07-20T05:44:58;100072.94;;;16.12;81.47
74794;BME280;63320;50.768;6.724;2023-07-20T05:47:25;100088.97;;;16.10;81.98
74794;BME280;63320;50.768;6.724;2023-07-20T05:49:50;100072.25;;;16.21;81.47
74794;BME280;63320;50.768;6.724;2023-07-20T05:52:16;100079.59;;;16.17;82.14
74794;BME280;63320;50.768;6.724;2023-07-20T05:54:41;100082.47;;;16.14;82.02
74794;BME280;63320;50.768;6.724;2023-07-20T05:57:07;100088.69;;;16.02;82.49
74794;BME280;63320;50.768;6.724;2023-07-20T05:59:32;100096.13;;;15.97;81.96
74794;BME280;63320;50.768;6.724;2023-07-20T06:01:58;100101.19;;;16.00;82.06
74794;BME280;63320;50.768;6.724;2023-07-20T06:04:24;100099.25;;;16.39;80.96
74794;BME280;63320;50.768;6.724;2023-07-20T06:06:50;100101.25;;;16.11;82.10
74794;BME280;63320;50.768;6.724;2023-07-20T06:09:15;100106.00;;;16.19;82.53
74794;BME280;63320;50.768;6.724;2023-07-20T06:11:40;100103.75;;;16.73;79.51
74794;BME280;63320;50.768;6.724;2023-07-20T06:14:06;100099.81;;;16.90;78.70
74794;BME280;63320;50.768;6.724;2023-07-20T06:16:31;100105.75;;;16.70;79.24
74794;BME280;63320;50.768;6.724;2023-07-20T06:18:59;100091.91;;;16.42;80.90
74794;BME280;63320;50.768;6.724;2023-07-20T06:21:26;100109.69;;;16.77;79.46
74794;BME280;63320;50.768;6.724;2023-07-20T06:23:51;100105.78;;;16.46;80.08
74794;BME280;63320;50.768;6.724;2023-07-20T06:26:17;100106.53;;;16.72;79.49
74794;BME280;63320;50.768;6.724;2023-07-20T06:28:42;100106.41;;;16.49;81.29
74794;BME280;63320;50.768;6.724;2023-07-20T06:31:07;100107.63;;;16.56;80.82
74794;BME280;63320;50.768;6.724;2023-07-20T06:33:33;100109.72;;;16.64;81.11
74794;BME280;63320;50.768;6.724;2023-07-20T06:35:58;100114.31;;;16.62;80.85
74794;BME280;63320;50.768;6.724;2023-07-20T06:38:25;100109.22;;;16.59;80.67
74794;BME280;63320;50.768;6.724;2023-07-20T06:40:50;100115.41;;;16.71;80.51
74794;BME280;63320;50.768;6.724;2023-07-20T06:43:16;100111.13;;;16.81;80.37
74794;BME280;63320;50.768;6.724;2023-07-20T06:45:42;100109.50;;;16.67;80.47
74794;BME280;63320;50.768;6.724;2023-07-20T06:48:07;100119.44;;;16.76;79.75
74794;BME280;63320;50.768;6.724;2023-07-20T06:50:33;100111.03;;;16.82;79.97
74794;BME280;63320;50.768;6.724;2023-07-20T06:52:58;100117.44;;;16.91;79.49
74794;BME280;63320;50.768;6.724;2023-07-20T06:55:25;100110.09;;;17.06;78.96
74794;BME280;63320;50.768;6.724;2023-07-20T06:57:50;100110.25;;;17.27;78.32
74794;BME280;63320;50.768;6.724;2023-07-20T07:00:16;100116.88;;;17.21;78.47
74794;BME280;63320;50.768;6.724;2023-07-20T07:02:41;100119.28;;;17.02;79.54
74794;BME280;63320;50.768;6.724;2023-07-20T07:05:07;100121.81;;;16.92;78.58
74794;BME280;63320;50.768;6.724;2023-07-20T07:07:32;100127.16;;;17.26;77.39
74794;BME280;63320;50.768;6.724;2023-07-20T07:09:58;100119.31;;;17.35;76.65
74794;BME280;63320;50.768;6.724;2023-07-20T07:12:25;100119.72;;;17.53;76.28
74794;BME280;63320;50.768;6.724;2023-07-20T07:14:50;100123.81;;;17.35;77.34
74794;BME280;63320;50.768;6.724;2023-07-20T07:17:16;100130.81;;;17.70;75.73
74794;BME280;63320;50.768;6.724;2023-07-20T07:19:41;100127.09;;;17.83;74.42
74794;BME280;63320;50.768;6.724;2023-07-20T07:22:06;100128.50;;;17.20;76.34
74794;BME280;63320;50.768;6.724;2023-07-20T07:24:31;100129.72;;;17.39;76.87
74794;BME280;63320;50.768;6.724;2023-07-20T07:26:57;100127.63;;;17.08;77.64
74794;BME280;63320;50.768;6.724;2023-07-20T07:29:23;100134.69;;;17.66;75.38
74794;BME280;63320;50.768;6.724;2023-07-20T07:31:49;100130.66;;;17.26;75.45
74794;BME280;63320;50.768;6.724;2023-07-20T07:34:14;100125.97;;;17.30;75.18
74794;BME280;63320;50.768;6.724;2023-07-20T07:36:39;100123.66;;;17.37;74.39
74794;BME280;63320;50.768;6.724;2023-07-20T07:39:05;100125.25;;;17.61;72.83
74794;BME280;63320;50.768;6.724;2023-07-20T07:41:30;100120.91;;;17.72;73.49
74794;BME280;63320;50.768;6.724;2023-07-20T07:43:55;100125.38;;;17.49;73.58
74794;BME280;63320;50.768;6.724;2023-07-20T07:46:22;100125.88;;;17.54;74.04
74794;BME280;63320;50.768;6.724;2023-07-20T07:48:47;100136.28;;;17.79;71.75
74794;BME280;63320;50.768;6.724;2023-07-20T07:51:13;100129.16;;;18.02;70.06
74794;BME280;63320;50.768;6.724;2023-07-20T07:53:38;100123.81;;;18.02;69.50
74794;BME280;63320;50.768;6.724;2023-07-20T07:56:06;100127.41;;;18.24;68.00
74794;BME280;63320;50.768;6.724;2023-07-20T07:58:32;100133.19;;;18.29;67.86
74794;BME280;63320;50.768;6.724;2023-07-20T08:00:57;100127.13;;;18.38;67.40
74794;BME280;63320;50.768;6.724;2023-07-20T08:03:24;100133.66;;;18.34;64.36
74794;BME280;63320;50.768;6.724;2023-07-20T08:05:49;100130.56;;;18.50;65.71
74794;BME280;63320;50.768;6.724;2023-07-20T08:08:14;100136.50;;;18.42;66.18
74794;BME280;63320;50.768;6.724;2023-07-20T08:10:40;100130.91;;;18.56;65.18
74794;BME280;63320;50.768;6.724;2023-07-20T08:13:05;100154.75;;;18.69;64.67
74794;BME280;63320;50.768;6.724;2023-07-20T08:15:30;100136.97;;;18.58;64.66
74794;BME280;63320;50.768;6.724;2023-07-20T08:17:56;100141.50;;;18.35;64.21
74794;BME280;63320;50.768;6.724;2023-07-20T08:20:22;100142.31;;;18.47;64.40
74794;BME280;63320;50.768;6.724;2023-07-20T08:22:48;100146.50;;;18.29;62.64
74794;BME280;63320;50.768;6.724;2023-07-20T08:25:13;100147.06;;;18.44;62.10
74794;BME280;63320;50.768;6.724;2023-07-20T08:27:38;100145.28;;;18.33;62.15
74794;BME280;63320;50.768;6.724;2023-07-20T08:30:05;100150.44;;;18.46;62.68
74794;BME280;63320;50.768;6.724;2023-07-20T08:32:32;100143.47;;;18.66;61.56
74794;BME280;63320;50.768;6.724;2023-07-20T08:34:57;100146.31;;;18.85;59.35
74794;BME280;63320;50.768;6.724;2023-07-20T08:37:24;100141.44;;;18.90;60.21
74794;BME280;63320;50.768;6.724;2023-07-20T08:39:49;100139.56;;;19.02;60.46
74794;BME280;63320;50.768;6.724;2023-07-20T08:42:16;100143.28;;;19.10;60.29
74794;BME280;63320;50.768;6.724;2023-07-20T08:44:42;100141.00;;;19.06;60.14
74794;BME280;63320;50.768;6.724;2023-07-20T08:47:08;100143.72;;;19.15;59.50
74794;BME280;63320;50.768;6.724;2023-07-20T08:49:34;100149.19;;;19.35;59.10
74794;BME280;63320;50.768;6.724;2023-07-20T08:51:59;100148.94;;;19.48;59.55
74794;BME280;63320;50.768;6.724;2023-07-20T08:54:30;100139.69;;;18.79;60.62
74794;BME280;63320;50.768;6.724;2023-07-20T08:56:56;100146.19;;;19.07;60.39
74794;BME280;63320;50.768;6.724;2023-07-20T08:59:23;100143.59;;;19.38;59.91
74794;BME280;63320;50.768;6.724;2023-07-20T09:01:49;100148.88;;;19.28;59.37
74794;BME280;63320;50.768;6.724;2023-07-20T09:04:16;100144.38;;;19.29;58.86
74794;BME280;63320;50.768;6.724;2023-07-20T09:06:41;100141.28;;;19.03;59.74
74794;BME280;63320;50.768;6.724;2023-07-20T09:09:07;100146.16;;;19.19;58.49
74794;BME280;63320;50.768;6.724;2023-07-20T09:11:34;100148.94;;;19.38;58.71
74794;BME280;63320;50.768;6.724;2023-07-20T09:14:03;100144.03;;;19.43;58.68
74794;BME280;63320;50.768;6.724;2023-07-20T09:16:29;100139.31;;;19.56;57.05
74794;BME280;63320;50.768;6.724;2023-07-20T09:18:54;100140.50;;;19.42;57.38
74794;BME280;63320;50.768;6.724;2023-07-20T09:21:22;100138.19;;;19.80;56.62
74794;BME280;63320;50.768;6.724;2023-07-20T09:23:48;100137.78;;;19.84;56.01
74794;BME280;63320;50.768;6.724;2023-07-20T09:26:13;100135.22;;;19.73;56.79
74794;BME280;63320;50.768;6.724;2023-07-20T09:28:44;100136.13;;;19.62;57.54
74794;BME280;63320;50.768;6.724;2023-07-20T09:31:15;100135.50;;;19.49;55.35
74794;BME280;63320;50.768;6.724;2023-07-20T09:33:41;100136.78;;;19.55;55.28
74794;BME280;63320;50.768;6.724;2023-07-20T09:36:09;100139.56;;;19.74;54.84
74794;BME280;63320;50.768;6.724;2023-07-20T09:38:34;100137.09;;;19.92;54.32
74794;BME280;63320;50.768;6.724;2023-07-20T09:41:00;100136.88;;;20.05;51.56
74794;BME280;63320;50.768;6.724;2023-07-20T09:43:28;100139.47;;;19.85;51.87
74794;BME280;63320;50.768;6.724;2023-07-20T09:45:58;100136.75;;;19.76;52.69
74794;BME280;63320;50.768;6.724;2023-07-20T09:48:24;100139.25;;;19.67;52.45
74794;BME280;63320;50.768;6.724;2023-07-20T09:50:50;100128.66;;;19.56;53.15
74794;BME280;63320;50.768;6.724;2023-07-20T09:53:17;100124.16;;;19.57;53.94
74794;BME280;63320;50.768;6.724;2023-07-20T09:55:43;100127.44;;;19.60;54.01
74794;BME280;63320;50.768;6.724;2023-07-20T09:58:09;100127.41;;;19.91;53.34
74794;BME280;63320;50.768;6.724;2023-07-20T10:00:36;100123.66;;;20.13;51.90
74794;BME280;63320;50.768;6.724;2023-07-20T10:03:03;100124.44;;;20.44;49.85
74794;BME280;63320;50.768;6.724;2023-07-20T10:05:32;100129.19;;;20.40;49.31
74794;BME280;63320;50.768;6.724;2023-07-20T10:07:58;100125.34;;;20.04;49.00
74794;BME280;63320;50.768;6.724;2023-07-20T10:10:24;100124.41;;;20.25;49.28
74794;BME280;63320;50.768;6.724;2023-07-20T10:12:50;100122.59;;;20.35;49.90
74794;BME280;63320;50.768;6.724;2023-07-20T10:15:19;100119.25;;;20.52;49.74
74794;BME280;63320;50.768;6.724;2023-07-20T10:17:57;100124.16;;;20.47;50.05
74794;BME280;63320;50.768;6.724;2023-07-20T10:20:25;100114.16;;;20.39;49.98
74794;BME280;63320;50.768;6.724;2023-07-20T10:22:53;100106.72;;;20.53;50.41
74794;BME280;63320;50.768;6.724;2023-07-20T10:25:20;100103.34;;;20.41;50.68
74794;BME280;63320;50.768;6.724;2023-07-20T10:27:47;100104.47;;;20.48;50.92
74794;BME280;63320;50.768;6.724;2023-07-20T10:30:13;100107.88;;;20.60;50.82
74794;BME280;63320;50.768;6.724;2023-07-20T10:32:40;100101.63;;;20.21;51.56
74794;BME280;63320;50.768;6.724;2023-07-20T10:35:12;100106.88;;;20.61;50.66
74794;BME280;63320;50.768;6.724;2023-07-20T10:37:49;100097.88;;;20.62;50.19
74794;BME280;63320;50.768;6.724;2023-07-20T10:40:31;100100.28;;;20.84;49.77
74794;BME280;63320;50.768;6.724;2023-07-20T10:42:57;100101.09;;;20.85;48.49
74794;BME280;63320;50.768;6.724;2023-07-20T10:45:33;100094.09;;;20.64;49.08
74794;BME280;63320;50.768;6.724;2023-07-20T10:47:58;100089.16;;;20.89;49.53
74794;BME280;63320;50.768;6.724;2023-07-20T10:50:28;100095.19;;;20.81;50.11
74794;BME280;63320;50.768;6.724;2023-07-20T10:53:10;100088.84;;;20.92;49.27
74794;BME280;63320;50.768;6.724;2023-07-20T10:55:35;100093.91;;;21.05;49.66
74794;BME280;63320;50.768;6.724;2023-07-20T10:58:08;100085.06;;;20.85;49.18
74794;BME280;63320;50.768;6.724;2023-07-20T11:00:33;100081.25;;;20.87;49.56
74794;BME280;63320;50.768;6.724;2023-07-20T11:02:59;100083.91;;;20.97;48.74
74794;BME280;63320;50.768;6.724;2023-07-20T11:05:32;100087.34;;;20.80;47.82
74794;BME280;63320;50.768;6.724;2023-07-20T11:07:58;100089.28;;;20.78;46.62
74794;BME280;63320;50.768;6.724;2023-07-20T11:10:25;100087.19;;;20.72;46.67
74794;BME280;63320;50.768;6.724;2023-07-20T11:13:15;100089.88;;;20.62;47.80
74794;BME280;63320;50.768;6.724;2023-07-20T11:15:44;100094.91;;;20.84;48.67
74794;BME280;63320;50.768;6.724;2023-07-20T11:18:13;100095.78;;;20.75;49.64
74794;BME280;63320;50.768;6.724;2023-07-20T11:20:40;100094.19;;;20.92;49.27
74794;BME280;63320;50.768;6.724;2023-07-20T11:23:05;100089.16;;;20.89;49.39
74794;BME280;63320;50.768;6.724;2023-07-20T11:25:38;100086.59;;;20.87;49.17
74794;BME280;63320;50.768;6.724;2023-07-20T11:28:07;100083.38;;;20.84;49.06
74794;BME280;63320;50.768;6.724;2023-07-20T11:30:32;100082.25;;;20.57;49.42
74794;BME280;63320;50.768;6.724;2023-07-20T11:32:58;100082.84;;;20.71;49.28
74794;BME280;63320;50.768;6.724;2023-07-20T11:35:23;100091.66;;;20.90;48.69
74794;BME280;63320;50.768;6.724;2023-07-20T11:37:48;100091.50;;;20.92;48.29
74794;BME280;63320;50.768;6.724;2023-07-20T11:40:14;100085.34;;;20.91;48.28
74794;BME280;63320;50.768;6.724;2023-07-20T11:42:40;100096.00;;;21.01;48.86
74794;BME280;63320;50.768;6.724;2023-07-20T11:45:07;100085.75;;;20.97;48.31
74794;BME280;63320;50.768;6.724;2023-07-20T11:47:32;100088.97;;;21.00;48.47
74794;BME280;63320;50.768;6.724;2023-07-20T11:50:03;100085.47;;;20.90;48.39
74794;BME280;63320;50.768;6.724;2023-07-20T11:52:28;100087.28;;;21.09;48.34
74794;BME280;63320;50.768;6.724;2023-07-20T11:54:54;100097.28;;;20.87;48.34
74794;BME280;63320;50.768;6.724;2023-07-20T11:57:20;100084.50;;;20.91;48.60
74794;BME280;63320;50.768;6.724;2023-07-20T12:00:05;100076.63;;;20.89;48.35
74794;BME280;63320;50.768;6.724;2023-07-20T12:02:31;100081.16;;;20.79;48.81
74794;BME280;63320;50.768;6.724;2023-07-20T12:04:57;100077.34;;;21.38;47.71
74794;BME280;63320;50.768;6.724;2023-07-20T12:07:22;100080.50;;;21.14;47.63
74794;BME280;63320;50.768;6.724;2023-07-20T12:10:03;100069.34;;;21.29;47.48
74794;BME280;63320;50.768;6.724;2023-07-20T12:12:31;100073.97;;;21.36;47.73
74794;BME280;63320;50.768;6.724;2023-07-20T12:15:12;100064.22;;;20.98;46.37
74794;BME280;63320;50.768;6.724;2023-07-20T12:17:41;100064.78;;;20.92;45.59
74794;BME280;63320;50.768;6.724;2023-07-20T12:20:08;100066.56;;;21.11;45.39
74794;BME280;63320;50.768;6.724;2023-07-20T12:22:38;100067.28;;;21.60;43.90
74794;BME280;63320;50.768;6.724;2023-07-20T12:25:05;100063.91;;;22.03;42.86
74794;BME280;63320;50.768;6.724;2023-07-20T12:27:31;100055.03;;;22.03;42.86
74794;BME280;63320;50.768;6.724;2023-07-20T12:29:56;100048.44;;;22.25;43.90
74794;BME280;63320;50.768;6.724;2023-07-20T12:32:23;100046.34;;;22.18;43.88
74794;BME280;63320;50.768;6.724;2023-07-20T12:34:48;100050.19;;;22.16;43.87
74794;BME280;63320;50.768;6.724;2023-07-20T12:37:13;100047.59;;;22.24;43.62
74794;BME280;63320;50.768;6.724;2023-07-20T12:39:39;100041.16;;;22.17;43.39
74794;BME280;63320;50.768;6.724;2023-07-20T12:42:05;100043.84;;;22.35;42.77
74794;BME280;63320;50.768;6.724;2023-07-20T12:44:30;100039.16;;;22.55;40.33
74794;BME280;63320;50.768;6.724;2023-07-20T12:46:56;100047.50;;;22.34;40.18